sensor_id;sensor_type;location;lat;lon;timestamp;pressure;altitude;pressure_sealevel;temperature;humidity
50011;BME280;35899;50.352;19.390;2023-04-24T00:02:19;96967.79;;;10.68;59.27
50011;BME280;35899;50.352;19.390;2023-04-24T00:04:45;96962.84;;;10.67;59.37
50011;BME280;35899;50.352;19.390;2023-04-24T00:07:12;96959.61;;;10.64;59.40
50011;BME280;35899;50.352;19.390;2023-04-24T00:09:38;96961.29;;;10.59;59.64
50011;BME280;35899;50.352;19.390;2023-04-24T00:12:05;96961.91;;;10.53;59.78
50011;BME280;35899;50.352;19.390;2023-04-24T00:14:31;96959.84;;;10.53;59.87
50011;BME280;35899;50.352;19.390;2023-04-24T00:16:57;96960.15;;;10.55;59.85
50011;BME280;35899;50.352;19.390;2023-04-24T00:19:24;96958.94;;;10.53;59.62
50011;BME280;35899;50.352;19.390;2023-04-24T00:21:50;96953.83;;;10.52;59.74
50011;BME280;35899;50.352;19.390;2023-04-24T00:24:17;96952.29;;;10.48;59.63
50011;BME280;35899;50.352;19.390;2023-04-24T00:26:43;96946.13;;;10.44;59.77
50011;BME280;35899;50.352;19.390;2023-04-24T00:29:09;96947.40;;;10.43;59.79
50011;BME280;35899;50.352;19.390;2023-04-24T00:31:36;96942.41;;;10.36;59.92
50011;BME280;35899;50.352;19.390;2023-04-24T00:34:03;96943.95;;;10.30;60.26
50011;BME280;35899;50.352;19.390;2023-04-24T00:36:29;96945.35;;;10.24;60.65
50011;BME280;35899;50.352;19.390;2023-04-24T00:38:56;96940.71;;;10.17;60.55
50011;BME280;35899;50.352;19.390;2023-04-24T00:41:23;96935.48;;;10.12;61.07
50011;BME280;35899;50.352;19.390;2023-04-24T00:43:50;96931.98;;;10.06;60.84
50011;BME280;35899;50.352;19.390;2023-04-24T00:46:17;96929.87;;;10.00;60.88
50011;BME280;35899;50.352;19.390;2023-04-24T00:48:44;96928.23;;;9.93;60.95
50011;BME280;35899;50.352;19.390;2023-04-24T00:51:10;96926.88;;;9.84;61.09
50011;BME280;35899;50.352;19.390;2023-04-24T00:53:36;96926.20;;;9.77;61.09
50011;BME280;35899;50.352;19.390;2023-04-24T00:56:03;96922.44;;;9.73;61.49
50011;BME280;35899;50.352;19.390;2023-04-24T00:58:30;96915.88;;;9.64;61.27
50011;BME280;35899;50.352;19.390;2023-04-24T01:00:57;96912.66;;;9.55;61.45
50011;BME280;35899;50.352;19.390;2023-04-24T01:03:25;96917.03;;;9.49;61.72
50011;BME280;35899;50.352;19.390;2023-04-24T01:05:52;96913.33;;;9.43;62.03
50011;BME280;35899;50.352;19.390;2023-04-24T01:08:20;96913.27;;;9.37;62.08
50011;BME280;35899;50.352;19.390;2023-04-24T01:10:49;96911.58;;;9.37;62.50
50011;BME280;35899;50.352;19.390;2023-04-24T01:13:20;96908.04;;;9.38;62.86
50011;BME280;35899;50.352;19.390;2023-04-24T01:15:47;96912.75;;;9.37;63.13
50011;BME280;35899;50.352;19.390;2023-04-24T01:18:13;96913.61;;;9.37;63.27
50011;BME280;35899;50.352;19.390;2023-04-24T01:20:40;96909.77;;;9.36;63.29
50011;BME280;35899;50.352;19.390;2023-04-24T01:23:07;96908.13;;;9.35;63.52
50011;BME280;35899;50.352;19.390;2023-04-24T01:25:34;96904.02;;;9.34;63.85
50011;BME280;35899;50.352;19.390;2023-04-24T01:28:00;96904.95;;;9.33;64.11
50011;BME280;35899;50.352;19.390;2023-04-24T01:30:27;96902.77;;;9.29;63.83
50011;BME280;35899;50.352;19.390;2023-04-24T01:32:53;96900.39;;;9.26;64.09
50011;BME280;35899;50.352;19.390;2023-04-24T01:35:21;96897.00;;;9.23;64.23
50011;BME280;35899;50.352;19.390;2023-04-24T01:37:47;96894.20;;;9.21;64.17
50011;BME280;35899;50.352;19.390;2023-04-24T01:40:14;96892.88;;;9.18;64.37
50011;BME280;35899;50.352;19.390;2023-04-24T01:42:40;96893.07;;;9.16;64.33
50011;BME280;35899;50.352;19.390;2023-04-24T01:45:08;96886.06;;;9.15;64.87
50011;BME280;35899;50.352;19.390;2023-04-24T01:47:36;96886.94;;;9.13;64.58
50011;BME280;35899;50.352;19.390;2023-04-24T01:50:03;96883.79;;;9.11;64.94
50011;BME280;35899;50.352;19.390;2023-04-24T01:52:31;96879.80;;;9.10;65.00
50011;BME280;35899;50.352;19.390;2023-04-24T01:54:59;96880.33;;;9.07;65.05
50011;BME280;35899;50.352;19.390;2023-04-24T01:57:25;96880.34;;;9.05;65.02
50011;BME280;35899;50.352;19.390;2023-04-24T01:59:52;96874.36;;;9.04;65.07
50011;BME280;35899;50.352;19.390;2023-04-24T02:02:18;96873.61;;;9.05;64.93
50011;BME280;35899;50.352;19.390;2023-04-24T02:04:45;96873.85;;;9.04;64.85
50011;BME280;35899;50.352;19.390;2023-04-24T02:07:14;96872.08;;;9.00;64.75
50011;BME280;35899;50.352;19.390;2023-04-24T02:09:41;96869.13;;;8.98;64.81
50011;BME280;35899;50.352;19.390;2023-04-24T02:12:07;96870.27;;;8.92;64.67
50011;BME280;35899;50.352;19.390;2023-04-24T02:14:34;96865.45;;;8.92;64.76
50011;BME280;35899;50.352;19.390;2023-04-24T02:17:00;96862.88;;;8.92;64.99
50011;BME280;35899;50.352;19.390;2023-04-24T02:19:28;96859.74;;;8.93;64.88
50011;BME280;35899;50.352;19.390;2023-04-24T02:21:54;96858.73;;;8.94;65.01
50011;BME280;35899;50.352;19.390;2023-04-24T02:24:20;96858.91;;;8.94;65.16
50011;BME280;35899;50.352;19.390;2023-04-24T02:26:47;96853.78;;;8.90;64.91
50011;BME280;35899;50.352;19.390;2023-04-24T02:29:13;96853.94;;;8.88;64.72
50011;BME280;35899;50.352;19.390;2023-04-24T02:31:40;96846.23;;;8.87;64.96
50011;BME280;35899;50.352;19.390;2023-04-24T02:34:07;96840.91;;;8.85;64.79
50011;BME280;35899;50.352;19.390;2023-04-24T02:36:33;96839.32;;;8.76;65.01
50011;BME280;35899;50.352;19.390;2023-04-24T02:38:59;96834.77;;;8.71;64.87
50011;BME280;35899;50.352;19.390;2023-04-24T02:41:26;96836.85;;;8.68;65.23
50011;BME280;35899;50.352;19.390;2023-04-24T02:43:52;96832.81;;;8.65;65.30
50011;BME280;35899;50.352;19.390;2023-04-24T02:46:18;96834.04;;;8.63;65.40
50011;BME280;35899;50.352;19.390;2023-04-24T02:48:45;96835.72;;;8.63;65.57
50011;BME280;35899;50.352;19.390;2023-04-24T02:51:11;96837.48;;;8.63;65.39
50011;BME280;35899;50.352;19.390;2023-04-24T02:53:37;96834.39;;;8.58;65.25
50011;BME280;35899;50.352;19.390;2023-04-24T02:56:04;96834.66;;;8.55;65.21
50011;BME280;35899;50.352;19.390;2023-04-24T02:58:30;96835.79;;;8.53;65.49
50011;BME280;35899;50.352;19.390;2023-04-24T03:00:57;96832.17;;;8.53;65.41
50011;BME280;35899;50.352;19.390;2023-04-24T03:03:23;96833.77;;;8.53;65.39
50011;BME280;35899;50.352;19.390;2023-04-24T03:05:50;96836.11;;;8.49;65.17
50011;BME280;35899;50.352;19.390;2023-04-24T03:08:16;96837.27;;;8.46;65.13
50011;BME280;35899;50.352;19.390;2023-04-24T03:10:43;96836.72;;;8.44;65.36
50011;BME280;35899;50.352;19.390;2023-04-24T03:13:15;96832.84;;;8.40;65.10
50011;BME280;35899;50.352;19.390;2023-04-24T03:15:42;96831.36;;;8.37;65.18
50011;BME280;35899;50.352;19.390;2023-04-24T03:18:08;96829.36;;;8.34;65.28
50011;BME280;35899;50.352;19.390;2023-04-24T03:20:34;96828.63;;;8.30;65.14
50011;BME280;35899;50.352;19.390;2023-04-24T03:23:01;96829.96;;;8.27;65.21
50011;BME280;35899;50.352;19.390;2023-04-24T03:25:28;96827.23;;;8.23;65.21
50011;BME280;35899;50.352;19.390;2023-04-24T03:27:55;96825.36;;;8.21;65.25
50011;BME280;35899;50.352;19.390;2023-04-24T03:30:41;96828.70;;;8.20;65.35
50011;BME280;35899;50.352;19.390;2023-04-24T03:33:08;96824.74;;;8.20;65.29
50011;BME280;35899;50.352;19.390;2023-04-24T03:35:37;96825.38;;;8.20;65.38
50011;BME280;35899;50.352;19.390;2023-04-24T03:38:07;96824.90;;;8.18;65.56
50011;BME280;35899;50.352;19.390;2023-04-24T03:40:52;96823.50;;;8.14;65.74
50011;BME280;35899;50.352;19.390;2023-04-24T03:43:41;96823.23;;;8.13;66.00
50011;BME280;35899;50.352;19.390;2023-04-24T03:46:07;96821.17;;;8.13;66.05
50011;BME280;35899;50.352;19.390;2023-04-24T03:48:37;96822.75;;;8.10;66.12
50011;BME280;35899;50.352;19.390;2023-04-24T03:51:03;96824.13;;;8.08;65.98
50011;BME280;35899;50.352;19.390;2023-04-24T03:53:30;96822.91;;;8.10;66.15
50011;BME280;35899;50.352;19.390;2023-04-24T03:55:58;96823.68;;;8.16;66.13
50011;BME280;35899;50.352;19.390;2023-04-24T03:58:24;96827.38;;;8.19;66.10
50011;BME280;35899;50.352;19.390;2023-04-24T04:00:51;96826.81;;;8.27;66.30
50011;BME280;35899;50.352;19.390;2023-04-24T04:03:36;96827.17;;;8.35;66.48
50011;BME280;35899;50.352;19.390;2023-04-24T04:06:02;96828.73;;;8.42;66.33
50011;BME280;35899;50.352;19.390;2023-04-24T04:08:29;96830.52;;;8.50;66.34
50011;BME280;35899;50.352;19.390;2023-04-24T04:10:56;96829.06;;;8.58;66.00
50011;BME280;35899;50.352;19.390;2023-04-24T04:13:22;96828.93;;;8.68;66.12
50011;BME280;35899;50.352;19.390;2023-04-24T04:15:49;96827.30;;;8.80;66.10
50011;BME280;35899;50.352;19.390;2023-04-24T04:18:15;96830.95;;;8.92;65.91
50011;BME280;35899;50.352;19.390;2023-04-24T04:20:42;96829.83;;;9.05;65.69
50011;BME280;35899;50.352;19.390;2023-04-24T04:23:10;96826.29;;;9.14;65.47
50011;BME280;35899;50.352;19.390;2023-04-24T04:26:00;96825.54;;;9.27;65.20
50011;BME280;35899;50.352;19.390;2023-04-24T04:28:36;96825.43;;;9.41;65.03
50011;BME280;35899;50.352;19.390;2023-04-24T04:31:02;96822.79;;;9.56;65.19
50011;BME280;35899;50.352;19.390;2023-04-24T04:33:29;96825.64;;;9.73;64.72
50011;BME280;35899;50.352;19.390;2023-04-24T04:35:56;96821.39;;;9.87;64.67
50011;BME280;35899;50.352;19.390;2023-04-24T04:38:23;96820.91;;;9.99;64.67
50011;BME280;35899;50.352;19.390;2023-04-24T04:40:58;96822.42;;;10.12;64.39
50011;BME280;35899;50.352;19.390;2023-04-24T04:43:26;96820.85;;;10.24;64.15
50011;BME280;35899;50.352;19.390;2023-04-24T04:45:53;96820.50;;;10.35;63.36
50011;BME280;35899;50.352;19.390;2023-04-24T04:48:46;96816.55;;;10.44;62.87
50011;BME280;35899;50.352;19.390;2023-04-24T04:51:12;96820.73;;;10.54;62.80
50011;BME280;35899;50.352;19.390;2023-04-24T04:53:38;96821.92;;;10.68;62.28
50011;BME280;35899;50.352;19.390;2023-04-24T04:56:06;96819.55;;;10.83;62.24
50011;BME280;35899;50.352;19.390;2023-04-24T04:58:39;96817.98;;;11.04;62.07
50011;BME280;35899;50.352;19.390;2023-04-24T05:01:07;96817.85;;;11.25;61.46
50011;BME280;35899;50.352;19.390;2023-04-24T05:03:38;96815.11;;;11.42;61.24
50011;BME280;35899;50.352;19.390;2023-04-24T05:06:08;96816.81;;;11.59;61.12
50011;BME280;35899;50.352;19.390;2023-04-24T05:08:36;96817.38;;;11.74;60.82
50011;BME280;35899;50.352;19.390;2023-04-24T05:11:12;96820.59;;;11.92;61.20
50011;BME280;35899;50.352;19.390;2023-04-24T05:13:39;96820.52;;;12.09;60.82
50011;BME280;35899;50.352;19.390;2023-04-24T05:16:17;96822.51;;;12.18;59.60
50011;BME280;35899;50.352;19.390;2023-04-24T05:18:44;96823.73;;;12.29;59.54
50011;BME280;35899;50.352;19.390;2023-04-24T05:21:13;96820.38;;;12.37;59.26
50011;BME280;35899;50.352;19.390;2023-04-24T05:23:42;96821.64;;;12.49;59.31
50011;BME280;35899;50.352;19.390;2023-04-24T05:26:10;96821.04;;;12.66;59.62
50011;BME280;35899;50.352;19.390;2023-04-24T05:28:41;96824.64;;;12.83;59.80
50011;BME280;35899;50.352;19.390;2023-04-24T05:31:09;96825.14;;;12.98;59.87
50011;BME280;35899;50.352;19.390;2023-04-24T05:33:36;96825.61;;;13.07;59.65
50011;BME280;35899;50.352;19.390;2023-04-24T05:36:03;96822.15;;;13.14;59.47
50011;BME280;35899;50.352;19.390;2023-04-24T05:38:29;96819.42;;;13.20;59.53
50011;BME280;35899;50.352;19.390;2023-04-24T05:40:56;96818.98;;;13.26;59.50
50011;BME280;35899;50.352;19.390;2023-04-24T05:43:25;96819.73;;;13.36;59.39
50011;BME280;35899;50.352;19.390;2023-04-24T05:45:54;96818.73;;;13.45;59.22
50011;BME280;35899;50.352;19.390;2023-04-24T05:48:21;96820.23;;;13.57;58.97
50011;BME280;35899;50.352;19.390;2023-04-24T05:50:48;96815.80;;;13.66;58.73
50011;BME280;35899;50.352;19.390;2023-04-24T05:53:14;96816.91;;;13.76;58.75
50011;BME280;35899;50.352;19.390;2023-04-24T05:55:40;96815.88;;;13.86;58.67
50011;BME280;35899;50.352;19.390;2023-04-24T05:58:07;96816.52;;;13.99;58.45
50011;BME280;35899;50.352;19.390;2023-04-24T06:00:34;96815.37;;;14.13;58.35
50011;BME280;35899;50.352;19.390;2023-04-24T06:03:04;96812.96;;;14.27;58.16
50011;BME280;35899;50.352;19.390;2023-04-24T06:05:40;96812.63;;;14.42;57.95
50011;BME280;35899;50.352;19.390;2023-04-24T06:08:06;96810.45;;;14.56;57.71
50011;BME280;35899;50.352;19.390;2023-04-24T06:10:36;96812.08;;;14.71;57.73
50011;BME280;35899;50.352;19.390;2023-04-24T06:13:05;96802.79;;;14.86;57.79
50011;BME280;35899;50.352;19.390;2023-04-24T06:15:32;96803.67;;;15.01;57.85
50011;BME280;35899;50.352;19.390;2023-04-24T06:18:19;96797.54;;;15.16;57.54
50011;BME280;35899;50.352;19.390;2023-04-24T06:20:54;96796.78;;;15.29;57.21
50011;BME280;35899;50.352;19.390;2023-04-24T06:23:29;96797.90;;;15.44;57.09
50011;BME280;35899;50.352;19.390;2023-04-24T06:25:55;96795.30;;;15.55;57.06
50011;BME280;35899;50.352;19.390;2023-04-24T06:28:22;96793.24;;;15.69;57.01
50011;BME280;35899;50.352;19.390;2023-04-24T06:30:48;96791.11;;;15.79;56.26
50011;BME280;35899;50.352;19.390;2023-04-24T06:33:15;96790.34;;;15.87;56.21
50011;BME280;35899;50.352;19.390;2023-04-24T06:35:48;96791.95;;;15.92;55.92
50011;BME280;35899;50.352;19.390;2023-04-24T06:38:14;96786.92;;;16.00;55.81
50011;BME280;35899;50.352;19.390;2023-04-24T06:40:41;96788.55;;;16.11;55.59
50011;BME280;35899;50.352;19.390;2023-04-24T06:43:07;96783.83;;;16.20;55.23
50011;BME280;35899;50.352;19.390;2023-04-24T06:45:34;96783.23;;;16.29;54.62
50011;BME280;35899;50.352;19.390;2023-04-24T06:48:00;96780.88;;;16.40;54.62
50011;BME280;35899;50.352;19.390;2023-04-24T06:50:27;96780.04;;;16.50;54.07
50011;BME280;35899;50.352;19.390;2023-04-24T06:52:53;96777.72;;;16.59;54.33
50011;BME280;35899;50.352;19.390;2023-04-24T06:55:19;96775.77;;;16.67;53.86
50011;BME280;35899;50.352;19.390;2023-04-24T06:57:48;96776.41;;;16.74;53.42
50011;BME280;35899;50.352;19.390;2023-04-24T07:00:15;96775.90;;;16.83;52.96
50011;BME280;35899;50.352;19.390;2023-04-24T07:02:41;96776.59;;;16.94;53.00
50011;BME280;35899;50.352;19.390;2023-04-24T07:05:08;96770.88;;;17.04;52.78
50011;BME280;35899;50.352;19.390;2023-04-24T07:07:34;96766.25;;;17.15;51.88
50011;BME280;35899;50.352;19.390;2023-04-24T07:10:01;96765.42;;;17.28;50.69
50011;BME280;35899;50.352;19.390;2023-04-24T07:12:27;96759.71;;;17.39;50.35
50011;BME280;35899;50.352;19.390;2023-04-24T07:14:54;96761.16;;;17.50;50.07
50011;BME280;35899;50.352;19.390;2023-04-24T07:17:23;96756.40;;;17.61;49.80
50011;BME280;35899;50.352;19.390;2023-04-24T07:19:50;96753.95;;;17.69;47.75
50011;BME280;35899;50.352;19.390;2023-04-24T07:22:17;96752.90;;;17.72;46.22
50011;BME280;35899;50.352;19.390;2023-04-24T07:24:44;96751.98;;;17.75;45.86
50011;BME280;35899;50.352;19.390;2023-04-24T07:27:10;96750.59;;;17.83;44.73
50011;BME280;35899;50.352;19.390;2023-04-24T07:29:37;96751.21;;;17.88;43.33
50011;BME280;35899;50.352;19.390;2023-04-24T07:32:03;96752.50;;;17.97;44.18
50011;BME280;35899;50.352;19.390;2023-04-24T07:34:33;96747.71;;;18.13;44.33
50011;BME280;35899;50.352;19.390;2023-04-24T07:36:59;96749.70;;;18.30;43.96
50011;BME280;35899;50.352;19.390;2023-04-24T07:39:26;96748.55;;;18.44;44.44
50011;BME280;35899;50.352;19.390;2023-04-24T07:41:55;96744.91;;;18.56;42.52
50011;BME280;35899;50.352;19.390;2023-04-24T07:44:21;96744.10;;;18.60;41.96
50011;BME280;35899;50.352;19.390;2023-04-24T07:46:48;96737.45;;;18.70;42.11
50011;BME280;35899;50.352;19.390;2023-04-24T07:49:14;96736.23;;;18.79;40.95
50011;BME280;35899;50.352;19.390;2023-04-24T07:51:44;96732.31;;;18.87;40.60
50011;BME280;35899;50.352;19.390;2023-04-24T07:54:22;96726.91;;;18.98;40.40
50011;BME280;35899;50.352;19.390;2023-04-24T07:56:49;96727.93;;;19.09;40.64
50011;BME280;35899;50.352;19.390;2023-04-24T07:59:15;96725.41;;;19.19;39.46
50011;BME280;35899;50.352;19.390;2023-04-24T08:01:42;96722.02;;;19.19;38.83
50011;BME280;35899;50.352;19.390;2023-04-24T08:04:09;96717.91;;;19.23;38.49
50011;BME280;35899;50.352;19.390;2023-04-24T08:06:35;96721.14;;;19.27;38.30
50011;BME280;35899;50.352;19.390;2023-04-24T08:09:02;96720.41;;;19.35;37.95
50011;BME280;35899;50.352;19.390;2023-04-24T08:11:29;96720.61;;;19.37;36.83
50011;BME280;35899;50.352;19.390;2023-04-24T08:14:09;96719.42;;;19.35;36.42
50011;BME280;35899;50.352;19.390;2023-04-24T08:16:36;96713.27;;;19.41;37.04
50011;BME280;35899;50.352;19.390;2023-04-24T08:19:03;96714.66;;;19.54;37.63
50011;BME280;35899;50.352;19.390;2023-04-24T08:21:29;96713.71;;;19.64;37.51
50011;BME280;35899;50.352;19.390;2023-04-24T08:23:56;96709.84;;;19.78;37.31
50011;BME280;35899;50.352;19.390;2023-04-24T08:26:23;96709.70;;;19.95;37.22
50011;BME280;35899;50.352;19.390;2023-04-24T08:28:49;96705.38;;;20.09;37.24
50011;BME280;35899;50.352;19.390;2023-04-24T08:31:16;96704.83;;;20.23;37.90
50011;BME280;35899;50.352;19.390;2023-04-24T08:51:56;96691.63;;;21.34;35.42
50011;BME280;35899;50.352;19.390;2023-04-24T08:54:25;96690.95;;;21.58;34.95
50011;BME280;35899;50.352;19.390;2023-04-24T08:56:52;96693.02;;;21.81;33.27
50011;BME280;35899;50.352;19.390;2023-04-24T08:59:22;96687.21;;;21.92;32.47
50011;BME280;35899;50.352;19.390;2023-04-24T09:01:59;96692.56;;;22.14;31.78
50011;BME280;35899;50.352;19.390;2023-04-24T09:04:27;96691.42;;;22.20;32.03
50011;BME280;35899;50.352;19.390;2023-04-24T09:06:56;96687.48;;;22.45;32.05
50011;BME280;35899;50.352;19.390;2023-04-24T09:09:23;96687.91;;;22.68;31.66
50011;BME280;35899;50.352;19.390;2023-04-24T09:11:50;96678.69;;;22.92;31.81
50011;BME280;35899;50.352;19.390;2023-04-24T09:14:17;96674.11;;;23.23;33.07
50011;BME280;35899;50.352;19.390;2023-04-24T09:16:45;96672.18;;;23.57;33.41
50011;BME280;35899;50.352;19.390;2023-04-24T09:19:12;96676.28;;;23.73;31.30
50011;BME280;35899;50.352;19.390;2023-04-24T09:21:39;96673.59;;;23.78;30.96
50011;BME280;35899;50.352;19.390;2023-04-24T09:24:06;96669.27;;;23.85;31.12
50011;BME280;35899;50.352;19.390;2023-04-24T09:26:36;96669.16;;;24.00;31.44
50011;BME280;35899;50.352;19.390;2023-04-24T09:29:03;96666.56;;;24.22;31.48
50011;BME280;35899;50.352;19.390;2023-04-24T09:31:30;96668.20;;;24.40;30.50
50011;BME280;35899;50.352;19.390;2023-04-24T09:34:00;96663.42;;;24.38;29.91
50011;BME280;35899;50.352;19.390;2023-04-24T09:39:07;96655.21;;;24.08;29.81
50011;BME280;35899;50.352;19.390;2023-04-24T09:41:44;96656.90;;;24.03;29.71
50011;BME280;35899;50.352;19.390;2023-04-24T09:47:00;96654.98;;;23.91;29.61
50011;BME280;35899;50.352;19.390;2023-04-24T09:49:28;96652.02;;;24.04;29.14
50011;BME280;35899;50.352;19.390;2023-04-24T09:52:28;96653.38;;;24.25;29.17
50011;BME280;35899;50.352;19.390;2023-04-24T09:54:53;96649.31;;;24.61;28.91
50011;BME280;35899;50.352;19.390;2023-04-24T09:57:47;96644.90;;;24.94;28.67
50011;BME280;35899;50.352;19.390;2023-04-24T10:00:13;96645.11;;;25.17;28.50
50011;BME280;35899;50.352;19.390;2023-04-24T10:02:49;96639.98;;;25.45;28.60
50011;BME280;35899;50.352;19.390;2023-04-24T10:05:22;96637.09;;;25.67;28.51
50011;BME280;35899;50.352;19.390;2023-04-24T10:08:13;96632.89;;;25.92;28.48
50011;BME280;35899;50.352;19.390;2023-04-24T10:10:39;96634.72;;;26.06;27.75
50011;BME280;35899;50.352;19.390;2023-04-24T10:13:15;96637.98;;;26.22;27.47
50011;BME280;35899;50.352;19.390;2023-04-24T10:15:47;96636.52;;;26.27;27.27
50011;BME280;35899;50.352;19.390;2023-04-24T10:18:14;96638.91;;;26.41;27.66
50011;BME280;35899;50.352;19.390;2023-04-24T10:20:41;96632.64;;;26.61;27.59
50011;BME280;35899;50.352;19.390;2023-04-24T10:41:48;96624.20;;;27.12;24.32
50011;BME280;35899;50.352;19.390;2023-04-24T10:44:16;96622.64;;;27.07;24.18
50011;BME280;35899;50.352;19.390;2023-04-24T10:46:45;96618.02;;;27.04;23.89
50011;BME280;35899;50.352;19.390;2023-04-24T10:49:14;96612.36;;;27.21;24.00
50011;BME280;35899;50.352;19.390;2023-04-24T10:51:49;96610.98;;;27.54;24.30
50011;BME280;35899;50.352;19.390;2023-04-24T10:59:41;96609.27;;;29.10;23.15
50011;BME280;35899;50.352;19.390;2023-04-24T11:02:09;96610.94;;;29.31;22.23
50011;BME280;35899;50.352;19.390;2023-04-24T11:04:45;96606.36;;;29.61;21.93
50011;BME280;35899;50.352;19.390;2023-04-24T11:07:27;96610.48;;;30.11;22.40
50011;BME280;35899;50.352;19.390;2023-04-24T11:11:02;96606.63;;;30.76;21.77
50011;BME280;35899;50.352;19.390;2023-04-24T11:42:19;96609.61;;;30.87;20.40
50011;BME280;35899;50.352;19.390;2023-04-24T11:45:20;96606.48;;;31.11;20.03
50011;BME280;35899;50.352;19.390;2023-04-24T11:48:07;96613.95;;;30.37;19.66
50011;BME280;35899;50.352;19.390;2023-04-24T11:50:38;96609.43;;;29.63;20.46
50011;BME280;35899;50.352;19.390;2023-04-24T11:53:06;96603.77;;;29.20;21.33
50011;BME280;35899;50.352;19.390;2023-04-24T11:55:34;96607.77;;;29.04;21.70
50011;BME280;35899;50.352;19.390;2023-04-24T11:58:02;96606.06;;;28.79;21.72
50011;BME280;35899;50.352;19.390;2023-04-24T12:00:33;96605.80;;;28.47;21.69
50011;BME280;35899;50.352;19.390;2023-04-24T12:03:07;96602.55;;;28.22;22.00
50011;BME280;35899;50.352;19.390;2023-04-24T12:05:35;96605.27;;;28.18;22.59
50011;BME280;35899;50.352;19.390;2023-04-24T12:08:07;96600.69;;;28.82;22.93
50011;BME280;35899;50.352;19.390;2023-04-24T12:10:38;96599.43;;;29.81;22.73
50011;BME280;35899;50.352;19.390;2023-04-24T12:13:09;96598.91;;;30.49;22.61
50011;BME280;35899;50.352;19.390;2023-04-24T12:15:40;96594.48;;;31.03;22.12
50011;BME280;35899;50.352;19.390;2023-04-24T12:18:08;96594.30;;;31.35;21.81
50011;BME280;35899;50.352;19.390;2023-04-24T12:20:42;96592.63;;;31.97;21.38
50011;BME280;35899;50.352;19.390;2023-04-24T12:23:13;96597.56;;;32.15;21.17
50011;BME280;35899;50.352;19.390;2023-04-24T12:25:46;96595.66;;;31.04;21.86
50011;BME280;35899;50.352;19.390;2023-04-24T12:28:18;96593.65;;;29.83;22.05
50011;BME280;35899;50.352;19.390;2023-04-24T12:36:50;96584.95;;;28.17;23.82
50011;BME280;35899;50.352;19.390;2023-04-24T12:42:04;96590.27;;;28.40;24.43
50011;BME280;35899;50.352;19.390;2023-04-24T12:44:41;96584.95;;;29.43;24.04
50011;BME280;35899;50.352;19.390;2023-04-24T12:47:46;96582.26;;;31.21;23.37
50011;BME280;35899;50.352;19.390;2023-04-24T12:50:20;96579.21;;;31.80;22.43
50011;BME280;35899;50.352;19.390;2023-04-24T12:52:49;96580.00;;;32.60;21.92
50011;BME280;35899;50.352;19.390;2023-04-24T12:55:26;96583.48;;;33.09;20.83
50011;BME280;35899;50.352;19.390;2023-04-24T12:57:57;96585.30;;;33.34;20.41
50011;BME280;35899;50.352;19.390;2023-04-24T13:00:28;96594.45;;;33.98;20.33
50011;BME280;35899;50.352;19.390;2023-04-24T13:02:58;96592.23;;;34.79;19.63
50011;BME280;35899;50.352;19.390;2023-04-24T13:05:27;96587.64;;;35.50;19.73
50011;BME280;35899;50.352;19.390;2023-04-24T13:10:50;96587.84;;;33.56;20.30
50011;BME280;35899;50.352;19.390;2023-04-24T13:13:20;96595.38;;;31.85;21.43
50011;BME280;35899;50.352;19.390;2023-04-24T13:15:51;96594.64;;;31.09;22.18
50011;BME280;35899;50.352;19.390;2023-04-24T13:18:19;96596.33;;;30.93;22.42
50011;BME280;35899;50.352;19.390;2023-04-24T13:20:47;96598.80;;;30.10;23.18
50011;BME280;35899;50.352;19.390;2023-04-24T13:23:17;96595.34;;;29.24;23.83
50011;BME280;35899;50.352;19.390;2023-04-24T13:25:52;96592.15;;;28.36;24.77
50011;BME280;35899;50.352;19.390;2023-04-24T13:28:23;96600.55;;;27.66;25.36
50011;BME280;35899;50.352;19.390;2023-04-24T13:30:58;96592.73;;;27.02;26.24
50011;BME280;35899;50.352;19.390;2023-04-24T13:33:46;96598.89;;;26.29;26.62
50011;BME280;35899;50.352;19.390;2023-04-24T13:36:14;96594.61;;;26.17;26.73
50011;BME280;35899;50.352;19.390;2023-04-24T13:38:42;96591.23;;;26.26;26.85
50011;BME280;35899;50.352;19.390;2023-04-24T13:41:33;96591.70;;;27.14;26.56
50011;BME280;35899;50.352;19.390;2023-04-24T13:44:03;96588.13;;;27.06;26.65
50011;BME280;35899;50.352;19.390;2023-04-24T13:46:32;96589.55;;;26.81;26.76
50011;BME280;35899;50.352;19.390;2023-04-24T13:49:03;96594.64;;;26.02;27.37
50011;BME280;35899;50.352;19.390;2023-04-24T13:51:35;96594.66;;;25.00;27.73
50011;BME280;35899;50.352;19.390;2023-04-24T13:54:14;96595.58;;;23.99;28.86
50011;BME280;35899;50.352;19.390;2023-04-24T13:56:42;96596.69;;;23.39;29.85
50011;BME280;35899;50.352;19.390;2023-04-24T13:59:11;96594.66;;;22.89;30.48
50011;BME280;35899;50.352;19.390;2023-04-24T14:01:42;96594.59;;;22.40;31.25
50011;BME280;35899;50.352;19.390;2023-04-24T14:06:57;96602.42;;;21.39;32.52
50011;BME280;35899;50.352;19.390;2023-04-24T14:09:28;96604.17;;;21.06;33.33
50011;BME280;35899;50.352;19.390;2023-04-24T14:11:57;96603.71;;;20.84;33.98
50011;BME280;35899;50.352;19.390;2023-04-24T14:14:33;96608.73;;;20.64;34.48
50011;BME280;35899;50.352;19.390;2023-04-24T14:19:44;96615.25;;;20.23;35.59
50011;BME280;35899;50.352;19.390;2023-04-24T14:22:21;96614.95;;;20.12;36.48
50011;BME280;35899;50.352;19.390;2023-04-24T14:27:29;96615.40;;;19.80;37.33
50011;BME280;35899;50.352;19.390;2023-04-24T14:30:00;96617.23;;;19.72;37.70
50011;BME280;35899;50.352;19.390;2023-04-24T14:32:49;96620.47;;;19.56;38.37
50011;BME280;35899;50.352;19.390;2023-04-24T14:35:29;96622.61;;;19.37;38.82
50011;BME280;35899;50.352;19.390;2023-04-24T14:37:58;96623.28;;;19.19;39.24
50011;BME280;35899;50.352;19.390;2023-04-24T14:43:26;96622.42;;;18.90;40.30
50011;BME280;35899;50.352;19.390;2023-04-24T14:45:55;96624.48;;;18.76;40.44